createdAt,value
2017-05-04T00:02:13.955Z,77.00
2017-05-04T00:04:40.910Z,76.70
2017-05-04T00:07:07.974Z,76.50
2017-05-04T00:09:35.782Z,76.90
2017-05-04T00:12:03.469Z,77.50
2017-05-04T00:14:30.454Z,77.00
2017-05-04T00:16:57.424Z,76.60
2017-05-04T00:19:25.291Z,76.70
2017-05-04T00:21:52.213Z,76.80
2017-05-04T00:24:19.176Z,77.50
2017-05-04T00:26:46.136Z,78.10
2017-05-04T00:29:14.346Z,79.20
2017-05-04T00:31:41.291Z,79.90
2017-05-04T00:34:08.321Z,81.10
2017-05-04T00:36:35.999Z,82.00
2017-05-04T00:39:02.945Z,82.30
2017-05-04T00:41:29.964Z,82.90
2017-05-04T00:43:57.649Z,83.00
2017-05-04T00:46:24.574Z,82.80
2017-05-04T00:48:52.294Z,82.90
2017-05-04T00:51:19.262Z,82.80
2017-05-04T00:53:46.221Z,82.80
2017-05-04T00:56:13.162Z,82.90
2017-05-04T00:58:40.149Z,82.90
2017-05-04T01:01:07.088Z,82.90
2017-05-04T01:03:34.050Z,82.90
2017-05-04T01:06:01.031Z,82.90
2017-05-04T01:08:28.101Z,82.90
2017-05-04T01:10:55.015Z,82.90
2017-05-04T01:13:21.972Z,82.90
2017-05-04T01:15:48.911Z,82.90
2017-05-04T01:18:15.883Z,82.50
2017-05-04T01:20:42.839Z,82.80
2017-05-04T01:23:10.568Z,83.60
2017-05-04T01:25:38.670Z,82.80
2017-05-04T01:28:05.624Z,82.80
2017-05-04T01:30:33.495Z,82.20
2017-05-04T01:33:00.519Z,82.80
2017-05-04T01:35:27.493Z,82.90
2017-05-04T01:47:44.520Z,82.50
2017-05-04T01:50:11.445Z,82.60
2017-05-04T01:52:38.372Z,82.50
2017-05-04T01:55:06.118Z,82.10
2017-05-04T01:57:33.813Z,82.60
2017-05-04T02:00:00.759Z,82.90
2017-05-04T02:02:27.812Z,83.30
2017-05-04T02:04:54.773Z,82.80
2017-05-04T02:07:21.736Z,83.40
2017-05-04T02:09:48.684Z,83.90
2017-05-04T02:12:16.409Z,83.40
2017-05-04T02:14:43.388Z,84.00
2017-05-04T02:17:10.348Z,84.00
2017-05-04T02:19:37.297Z,83.60
2017-05-04T02:22:05.968Z,83.10
2017-05-04T02:24:33.831Z,83.30
2017-05-04T02:40:00.870Z,84.00
2017-05-04T02:42:27.829Z,84.30
2017-05-04T02:44:54.820Z,84.00
2017-05-04T02:47:22.505Z,84.70
2017-05-04T02:49:49.496Z,84.60
2017-05-04T02:52:16.427Z,84.50
2017-05-04T02:54:43.390Z,84.60
2017-05-04T02:57:10.397Z,84.40
2017-05-04T02:59:37.369Z,84.20
2017-05-04T03:02:04.344Z,84.30
2017-05-04T03:04:31.996Z,84.40
2017-05-04T03:06:58.924Z,83.60
2017-05-04T03:09:25.896Z,84.30
2017-05-04T03:11:52.830Z,84.50
2017-05-04T03:14:19.795Z,84.40
2017-05-04T03:16:47.511Z,84.60
2017-05-04T03:19:14.461Z,84.50
2017-05-04T03:21:41.404Z,84.50
2017-05-04T03:24:08.374Z,85.40
2017-05-04T03:26:35.333Z,84.50
2017-05-04T03:29:02.307Z,83.90
2017-05-04T03:31:29.247Z,84.00
2017-05-04T03:33:56.192Z,83.60
2017-05-04T03:36:23.884Z,83.90
2017-05-04T03:38:50.831Z,84.40
2017-05-04T03:41:17.779Z,84.90
2017-05-04T03:43:44.838Z,84.60
2017-05-04T03:46:11.806Z,84.00
2017-05-04T03:48:38.762Z,84.90
2017-05-04T03:51:05.757Z,85.10
2017-05-04T03:53:32.711Z,85.40
2017-05-04T03:55:59.632Z,85.50
2017-05-04T03:58:26.598Z,85.30
2017-05-04T04:00:53.559Z,85.40
2017-05-04T04:03:20.566Z,85.10
2017-05-04T04:05:48.387Z,84.60
2017-05-04T04:08:15.348Z,84.60
2017-05-04T04:10:42.283Z,84.80
2017-05-04T04:13:09.261Z,84.50
2017-05-04T04:15:36.951Z,84.00
2017-05-04T04:18:03.889Z,84.90
2017-05-04T04:20:30.932Z,84.40
2017-05-04T04:22:57.856Z,83.80
2017-05-04T04:25:24.864Z,83.90
2017-05-04T04:27:51.535Z,83.40
2017-05-04T04:30:18.252Z,82.90
2017-05-04T04:32:45.202Z,84.00
2017-05-04T04:35:12.307Z,84.50
2017-05-04T04:37:39.272Z,84.40
2017-05-04T04:40:06.261Z,84.40
2017-05-04T04:42:33.237Z,84.00
2017-05-04T04:45:00.933Z,83.60
2017-05-04T04:47:27.903Z,83.80
2017-05-04T04:49:54.902Z,84.30
2017-05-04T04:52:22.572Z,84.30
2017-05-04T04:54:50.022Z,84.00
2017-05-04T04:57:17.923Z,84.40
2017-05-04T04:59:44.906Z,84.30
2017-05-04T05:02:12.458Z,84.30
2017-05-04T05:04:39.439Z,85.00
2017-05-04T05:07:06.402Z,84.20
2017-05-04T05:09:33.392Z,84.10
2017-05-04T05:12:00.351Z,84.20
2017-05-04T05:14:30.390Z,83.90
2017-05-04T05:16:58.241Z,84.30
2017-05-04T05:19:25.263Z,84.80
2017-05-04T05:21:52.305Z,84.90
2017-05-04T05:24:19.272Z,85.20
2017-05-04T05:26:46.261Z,85.10
2017-05-04T05:29:13.259Z,85.20
2017-05-04T05:31:40.260Z,84.90
2017-05-04T05:34:07.290Z,85.30
2017-05-04T05:36:35.546Z,85.20
2017-05-04T05:39:02.603Z,85.50
2017-05-04T05:41:30.955Z,85.30
2017-05-04T05:43:57.956Z,85.60
2017-05-04T05:46:24.923Z,85.40
2017-05-04T05:48:52.291Z,85.10
2017-05-04T05:51:19.347Z,84.30
2017-05-04T05:53:46.310Z,84.50
2017-05-04T05:56:13.749Z,84.20
2017-05-04T05:58:41.940Z,83.70
2017-05-04T06:01:09.666Z,83.10
2017-05-04T06:03:36.648Z,83.10
2017-05-04T06:06:03.591Z,83.10
2017-05-04T06:08:33.235Z,82.20
2017-05-04T06:11:02.776Z,81.20
2017-05-04T06:13:29.759Z,79.20
2017-05-04T06:15:56.720Z,77.80
2017-05-04T06:18:23.818Z,79.00
2017-05-04T06:20:50.783Z,79.80
2017-05-04T06:23:17.753Z,80.60
2017-05-04T06:25:44.736Z,80.50
2017-05-04T06:28:11.687Z,79.10
2017-05-04T06:30:38.693Z,80.00
2017-05-04T06:33:05.689Z,80.60
2017-05-04T06:35:32.324Z,79.90
2017-05-04T06:37:59.283Z,81.20
2017-05-04T06:40:26.509Z,79.80
2017-05-04T06:42:53.523Z,79.90
2017-05-04T06:45:20.500Z,79.50
2017-05-04T06:47:48.214Z,80.00
2017-05-04T06:50:15.207Z,80.20
2017-05-04T06:52:41.825Z,77.60
2017-05-04T06:55:09.902Z,78.60
2017-05-04T06:57:37.523Z,77.40
2017-05-04T07:00:04.490Z,77.70
2017-05-04T07:02:31.445Z,77.10
2017-05-04T07:04:59.229Z,76.80
2017-05-04T07:07:26.947Z,76.40
2017-05-04T07:09:54.575Z,76.50
2017-05-04T07:12:21.559Z,76.60
2017-05-04T07:14:48.499Z,76.60
2017-05-04T07:17:15.459Z,76.40
2017-05-04T07:19:43.438Z,76.00
2017-05-04T07:22:10.387Z,76.50
2017-05-04T07:24:37.663Z,77.00
2017-05-04T07:27:06.286Z,78.30
2017-05-04T07:29:33.233Z,78.60
2017-05-04T07:32:00.224Z,79.60
2017-05-04T07:34:27.941Z,78.80
2017-05-04T07:36:54.915Z,79.40
2017-05-04T07:39:21.891Z,79.10
2017-05-04T07:41:50.662Z,80.40
2017-05-04T07:44:17.605Z,80.40
2017-05-04T07:46:44.609Z,80.90
2017-05-04T07:49:11.595Z,80.90
2017-05-04T07:51:38.615Z,80.90
2017-05-04T07:54:05.575Z,82.10
2017-05-04T07:56:32.530Z,81.40
2017-05-04T07:58:59.433Z,81.10
2017-05-04T08:01:26.437Z,81.20
2017-05-04T08:03:53.426Z,81.50
2017-05-04T08:06:20.467Z,81.60
2017-05-04T08:08:48.339Z,81.30
2017-05-04T08:11:15.835Z,81.10
2017-05-04T08:23:32.804Z,77.70
2017-05-04T08:25:59.798Z,77.70
2017-05-04T08:28:26.736Z,76.70
2017-05-04T08:30:53.769Z,76.60
2017-05-04T08:33:20.725Z,75.70
2017-05-04T08:35:47.672Z,77.30
2017-05-04T08:38:14.652Z,74.10
2017-05-04T08:40:42.377Z,75.70
2017-05-04T08:43:09.387Z,74.60
2017-05-04T08:45:36.364Z,74.50
2017-05-04T08:48:03.295Z,73.30
2017-05-04T08:50:30.233Z,70.60
2017-05-04T08:52:57.213Z,71.50
2017-05-04T08:55:25.207Z,70.90
2017-05-04T08:57:52.986Z,68.80
2017-05-04T09:00:21.055Z,70.70
2017-05-04T09:02:48.828Z,68.40
2017-05-04T09:05:15.815Z,66.90
2017-05-04T09:07:42.783Z,68.20
2017-05-04T09:10:09.742Z,67.70
2017-05-04T09:12:36.722Z,67.90
2017-05-04T09:15:03.687Z,70.70
2017-05-04T09:17:30.638Z,70.40
2017-05-04T09:19:57.590Z,70.80
2017-05-04T09:22:24.584Z,67.60
2017-05-04T09:24:52.341Z,67.90
2017-05-04T09:27:19.315Z,69.90
2017-05-04T09:29:46.272Z,70.10
2017-05-04T09:32:13.322Z,70.70
2017-05-04T09:34:40.248Z,68.50
2017-05-04T09:37:07.966Z,69.20
2017-05-04T09:39:34.925Z,69.00
2017-05-04T09:42:01.947Z,70.00
2017-05-04T09:44:28.949Z,69.00
2017-05-04T09:46:56.681Z,68.00
2017-05-04T09:49:23.684Z,67.40
2017-05-04T09:51:51.651Z,67.00
2017-05-04T09:54:18.635Z,67.10
2017-05-04T09:56:45.624Z,70.50
2017-05-04T09:59:13.298Z,70.40
2017-05-04T10:01:40.259Z,69.80
2017-05-04T10:04:07.324Z,70.40
2017-05-04T10:06:34.276Z,71.20
2017-05-04T10:09:01.222Z,70.90
2017-05-04T10:11:29.195Z,71.40
2017-05-04T10:13:56.176Z,70.20
2017-05-04T10:16:23.882Z,72.50
2017-05-04T10:18:50.822Z,72.00
2017-05-04T10:21:17.796Z,71.60
2017-05-04T10:23:45.728Z,71.90
2017-05-04T10:26:12.680Z,72.50
2017-05-04T10:28:39.911Z,72.10
2017-05-04T10:31:07.604Z,72.90
2017-05-04T10:33:34.551Z,73.00
2017-05-04T10:36:01.537Z,74.40
2017-05-04T10:38:28.480Z,73.80
2017-05-04T10:40:56.303Z,73.80
2017-05-04T10:43:23.269Z,73.60
2017-05-04T10:45:50.242Z,73.50
2017-05-04T10:48:17.255Z,73.40
2017-05-04T10:50:44.207Z,73.20
2017-05-04T10:53:11.147Z,72.90
2017-05-04T10:55:38.143Z,72.50
2017-05-04T10:58:05.076Z,72.50
2017-05-04T11:00:32.832Z,72.10
2017-05-04T11:02:59.794Z,72.60
2017-05-04T11:05:26.758Z,72.00
2017-05-04T11:07:54.491Z,71.60
2017-05-04T11:10:21.432Z,71.40
2017-05-04T11:12:48.391Z,72.10
2017-05-04T11:15:15.429Z,72.00
2017-05-04T11:17:42.432Z,73.00
2017-05-04T11:20:09.237Z,73.30
2017-05-04T11:22:37.390Z,74.70
2017-05-04T11:25:06.144Z,74.70
2017-05-04T11:27:34.933Z,75.40
2017-05-04T11:30:02.163Z,77.20
2017-05-04T11:32:29.884Z,78.30
2017-05-04T11:34:57.223Z,78.10
2017-05-04T11:37:24.168Z,79.00
2017-05-04T11:39:51.173Z,77.00
2017-05-04T11:42:18.183Z,78.20
2017-05-04T11:44:46.442Z,78.10
2017-05-04T11:47:13.442Z,78.50
2017-05-04T11:49:41.163Z,77.60
2017-05-04T11:52:08.810Z,76.70
2017-05-04T11:54:35.850Z,76.00
2017-05-04T11:57:02.820Z,75.70
2017-05-04T11:59:30.351Z,75.00
2017-05-04T12:01:57.393Z,75.00
2017-05-04T12:14:09.581Z,74.60
2017-05-04T12:16:37.251Z,76.10
2017-05-04T12:19:05.229Z,76.80
2017-05-04T12:21:32.250Z,77.90
2017-05-04T12:23:59.257Z,78.50
2017-05-04T12:26:27.058Z,79.30
2017-05-04T12:28:54.200Z,79.60
2017-05-04T12:31:21.810Z,79.90
2017-05-04T12:33:49.820Z,80.40
2017-05-04T12:36:18.332Z,79.90
2017-05-04T12:38:45.325Z,77.10
2017-05-04T12:41:12.361Z,78.60
2017-05-04T12:43:39.336Z,77.90
2017-05-04T12:46:08.287Z,76.10
2017-05-04T12:48:35.312Z,74.60
2017-05-04T12:51:02.348Z,73.60
2017-05-04T12:53:29.861Z,74.70
2017-05-04T12:55:56.893Z,75.00
2017-05-04T12:58:24.000Z,74.80
2017-05-04T13:00:51.033Z,75.00
2017-05-04T13:03:19.483Z,74.30
2017-05-04T13:05:47.222Z,73.30
2017-05-04T13:08:14.235Z,72.10
2017-05-04T13:10:42.979Z,71.40
2017-05-04T13:13:09.939Z,70.80
2017-05-04T13:15:39.660Z,71.30
2017-05-04T13:18:08.528Z,70.40
2017-05-04T13:20:36.286Z,70.20
2017-05-04T13:23:03.293Z,71.30
2017-05-04T13:25:32.945Z,71.30
2017-05-04T13:27:59.936Z,72.40
2017-05-04T13:30:27.624Z,72.10
2017-05-04T13:32:55.597Z,73.60
2017-05-04T13:35:22.610Z,74.00
2017-05-04T13:37:52.637Z,74.70
2017-05-04T13:40:22.002Z,75.30
2017-05-04T13:42:49.051Z,74.70
2017-05-04T13:45:31.907Z,75.60
2017-05-04T13:47:58.869Z,75.90
2017-05-04T13:50:25.902Z,76.30
2017-05-04T13:52:53.380Z,77.60
2017-05-04T13:55:20.395Z,76.30
2017-05-04T13:57:48.609Z,77.30
2017-05-04T14:00:17.064Z,77.20
2017-05-04T14:02:45.632Z,76.50
2017-05-04T14:05:13.411Z,76.60
2017-05-04T14:07:41.152Z,76.40
2017-05-04T14:10:07.773Z,76.10
2017-05-04T14:12:34.734Z,76.60
2017-05-04T14:15:01.732Z,76.90
2017-05-04T14:17:32.003Z,76.90
2017-05-04T14:19:59.021Z,77.60
2017-05-04T14:22:26.242Z,78.20
2017-05-04T14:24:54.356Z,78.50
2017-05-04T14:27:21.302Z,78.00
2017-05-04T14:29:48.242Z,78.00
2017-05-04T14:42:00.316Z,78.70
2017-05-04T14:44:27.299Z,78.60
2017-05-04T14:46:56.087Z,79.30
2017-05-04T14:49:24.664Z,78.70
2017-05-04T14:51:51.707Z,78.20
2017-05-04T14:54:18.754Z,77.90
2017-05-04T14:56:45.733Z,78.30
2017-05-04T14:59:12.517Z,77.10
2017-05-04T15:01:39.553Z,77.60
2017-05-04T15:04:06.768Z,77.10
2017-05-04T15:06:34.485Z,77.60
2017-05-04T15:22:03.273Z,77.30
2017-05-04T15:24:30.792Z,77.30
2017-05-04T15:26:58.796Z,77.30
2017-05-04T15:29:25.771Z,76.80
2017-05-04T15:31:53.656Z,76.90
2017-05-04T15:34:21.690Z,76.90
2017-05-04T15:37:03.669Z,77.50
2017-05-04T15:39:30.711Z,77.60
2017-05-04T15:41:57.637Z,77.10
2017-05-04T15:44:24.560Z,76.30
2017-05-04T15:46:51.530Z,76.10
2017-05-04T15:49:18.503Z,75.70
2017-05-04T15:51:45.844Z,74.80
2017-05-04T15:54:12.804Z,74.00
2017-05-04T15:56:39.849Z,72.90
2017-05-04T15:59:06.816Z,72.60
2017-05-04T16:01:34.553Z,72.40
2017-05-04T16:04:01.647Z,72.30
2017-05-04T16:06:28.669Z,73.40
2017-05-04T16:08:55.685Z,72.70
2017-05-04T16:11:22.655Z,71.90
2017-05-04T16:13:49.691Z,72.90
2017-05-04T16:16:16.722Z,73.30
2017-05-04T16:18:43.735Z,72.30
2017-05-04T16:21:10.344Z,70.30
2017-05-04T16:23:37.871Z,70.70
2017-05-04T16:26:05.093Z,69.60
2017-05-04T16:28:32.810Z,69.50
2017-05-04T16:30:59.845Z,70.30
2017-05-04T16:33:27.495Z,69.60
2017-05-04T16:35:54.627Z,69.00
2017-05-04T16:38:22.618Z,69.60
2017-05-04T16:40:49.704Z,69.50
2017-05-04T16:43:16.787Z,69.30
2017-05-04T16:45:44.545Z,68.60
2017-05-04T16:48:12.224Z,69.30
2017-05-04T16:50:38.782Z,70.20
2017-05-04T16:53:05.756Z,71.90
2017-05-04T16:55:32.744Z,70.70
2017-05-04T16:58:00.461Z,70.60
2017-05-04T17:00:28.363Z,70.60
2017-05-04T17:02:56.188Z,70.00
2017-05-04T17:05:23.785Z,69.60
2017-05-04T17:07:50.784Z,69.90
2017-05-04T17:10:19.543Z,69.80
2017-05-04T17:12:47.277Z,69.50
2017-05-04T17:15:14.298Z,70.10
2017-05-04T17:17:42.212Z,70.60
2017-05-04T17:20:09.234Z,70.10
2017-05-04T17:22:36.185Z,69.80
2017-05-04T17:25:03.143Z,69.60
2017-05-04T17:27:30.872Z,69.90
2017-05-04T17:29:57.817Z,69.40
2017-05-04T17:32:25.380Z,69.60
2017-05-04T17:34:52.361Z,69.50
2017-05-04T17:37:19.310Z,69.00
2017-05-04T17:39:46.304Z,69.50
2017-05-04T17:42:13.369Z,69.50
2017-05-04T17:44:40.571Z,69.40
2017-05-04T17:47:08.304Z,69.20
2017-05-04T17:49:35.942Z,69.50
2017-05-04T17:52:03.084Z,70.00
2017-05-04T17:54:30.088Z,71.10
2017-05-04T17:56:57.764Z,71.40
2017-05-04T17:59:25.553Z,71.60
2017-05-04T18:01:52.648Z,72.10
2017-05-04T18:04:19.647Z,71.60
2017-05-04T18:06:48.131Z,71.60
2017-05-04T18:09:15.207Z,71.60
2017-05-04T18:11:42.176Z,71.80
2017-05-04T18:14:09.179Z,71.90
2017-05-04T18:16:36.132Z,72.60
2017-05-04T18:19:03.130Z,72.20
2017-05-04T18:21:30.925Z,72.70
2017-05-04T18:23:57.911Z,72.30
2017-05-04T18:26:25.937Z,72.90
2017-05-04T18:28:52.974Z,73.30
2017-05-04T18:31:20.682Z,73.50
2017-05-04T18:33:47.742Z,73.50
2017-05-04T18:36:14.736Z,73.70
2017-05-04T18:38:42.491Z,73.80
2017-05-04T18:41:10.209Z,73.90
2017-05-04T18:43:37.187Z,74.30
2017-05-04T18:46:04.255Z,74.10
2017-05-04T18:48:32.012Z,74.60
2017-05-04T18:50:59.859Z,74.50
2017-05-04T18:53:26.887Z,74.50
2017-05-04T18:55:55.697Z,74.50
2017-05-04T18:58:22.684Z,74.60
2017-05-04T19:00:50.120Z,75.00
2017-05-04T19:03:18.923Z,74.50
2017-05-04T19:05:46.670Z,73.80
2017-05-04T19:08:13.650Z,72.60
2017-05-04T19:10:40.597Z,73.40
2017-05-04T19:13:07.865Z,73.70
2017-05-04T19:15:35.800Z,73.20
2017-05-04T19:18:04.165Z,73.30
2017-05-04T19:20:31.871Z,73.00
2017-05-04T19:23:00.172Z,73.10
2017-05-04T19:25:27.577Z,73.00
2017-05-04T19:27:55.247Z,73.00
2017-05-04T19:30:28.235Z,72.60
2017-05-04T19:32:56.272Z,73.10
2017-05-04T19:35:23.376Z,72.70
2017-05-04T19:37:51.587Z,72.70
2017-05-04T19:40:18.785Z,74.00
2017-05-04T19:42:46.769Z,73.30
2017-05-04T19:45:14.692Z,73.30
2017-05-04T19:47:41.634Z,72.80
2017-05-04T19:50:08.647Z,72.50
2017-05-04T19:52:35.634Z,72.50
2017-05-04T19:55:03.607Z,72.30
2017-05-04T19:57:31.042Z,73.50
2017-05-04T19:59:58.614Z,72.50
2017-05-04T20:02:26.264Z,73.10
2017-05-04T20:04:53.663Z,72.70
2017-05-04T20:07:22.704Z,73.20
2017-05-04T20:09:50.593Z,73.50
2017-05-04T20:12:18.451Z,73.30
2017-05-04T20:14:47.207Z,73.80
2017-05-04T20:17:14.622Z,74.00
2017-05-04T20:19:41.584Z,74.10
2017-05-04T20:22:09.321Z,73.40
2017-05-04T20:24:39.638Z,73.10
2017-05-04T20:27:11.318Z,73.90
2017-05-04T20:29:38.384Z,74.20
2017-05-04T20:32:07.449Z,73.80
2017-05-04T20:34:34.563Z,74.50
2017-05-04T20:37:08.810Z,74.30
2017-05-04T20:39:35.886Z,74.90
2017-05-04T20:42:03.574Z,73.70
2017-05-04T20:44:31.492Z,74.50
2017-05-04T20:46:58.470Z,75.40
2017-05-04T20:49:25.587Z,74.50
2017-05-04T20:51:53.602Z,74.30
2017-05-04T20:54:20.575Z,74.10
2017-05-04T20:56:47.568Z,74.20
2017-05-04T20:59:14.692Z,73.90
2017-05-04T21:01:41.639Z,73.80
2017-05-04T21:04:09.613Z,73.30
2017-05-04T21:06:36.613Z,73.20
2017-05-04T21:09:03.598Z,73.10
2017-05-04T21:11:30.606Z,74.00
2017-05-04T21:13:57.595Z,74.10
2017-05-04T21:16:24.531Z,74.40
2017-05-04T21:18:52.594Z,73.80
2017-05-04T21:21:19.574Z,73.50
2017-05-04T21:23:46.557Z,73.60
2017-05-04T21:26:14.023Z,74.10
2017-05-04T21:28:41.060Z,73.80
2017-05-04T21:31:08.585Z,74.60
2017-05-04T21:33:36.712Z,75.30
2017-05-04T21:36:03.793Z,75.60
2017-05-04T21:38:31.590Z,75.60
2017-05-04T21:40:58.671Z,75.60
2017-05-04T21:43:25.778Z,75.60
2017-05-04T21:45:52.763Z,75.60
2017-05-04T21:48:20.107Z,74.90
2017-05-04T21:50:47.159Z,75.90
2017-05-04T21:53:14.148Z,76.20
2017-05-04T21:55:41.181Z,76.60
2017-05-04T21:58:08.201Z,76.10
2017-05-04T22:00:35.283Z,75.80
2017-05-04T22:03:02.236Z,75.50
2017-05-04T22:05:29.208Z,75.60
2017-05-04T22:07:56.243Z,75.00
2017-05-04T22:10:23.217Z,75.60
2017-05-04T22:12:50.935Z,75.60
2017-05-04T22:15:18.280Z,75.50
2017-05-04T22:17:45.698Z,75.30
2017-05-04T22:20:13.422Z,74.90
2017-05-04T22:22:40.404Z,75.40
2017-05-04T22:25:08.090Z,75.50
2017-05-04T22:27:35.019Z,75.10
2017-05-04T22:30:03.562Z,75.00
2017-05-04T22:32:30.498Z,74.10
2017-05-04T22:34:57.508Z,74.00
2017-05-04T22:37:24.472Z,72.70
2017-05-04T22:39:51.421Z,72.50
2017-05-04T22:42:18.436Z,72.50
2017-05-04T22:44:46.132Z,71.80
2017-05-04T22:47:13.902Z,72.00
2017-05-04T22:59:25.923Z,72.80
2017-05-04T23:01:52.953Z,73.10
2017-05-04T23:04:19.897Z,73.20
2017-05-04T23:06:46.944Z,73.30
2017-05-04T23:09:13.878Z,73.30
2017-05-04T23:11:40.847Z,73.50
2017-05-04T23:14:08.435Z,72.70
2017-05-04T23:16:35.131Z,72.30
2017-05-04T23:19:02.432Z,73.00
2017-05-04T23:21:29.518Z,73.00
2017-05-04T23:23:56.442Z,72.90
2017-05-04T23:26:23.411Z,73.00
2017-05-04T23:28:51.415Z,73.10
2017-05-04T23:31:18.536Z,72.60
2017-05-04T23:33:46.407Z,72.60
2017-05-04T23:36:13.442Z,72.60
2017-05-04T23:38:40.571Z,72.40
2017-05-04T23:41:07.550Z,72.30
2017-05-04T23:43:34.536Z,72.00
2017-05-04T23:46:02.328Z,72.10
2017-05-04T23:48:29.850Z,72.10
2017-05-04T23:50:57.545Z,72.20
2017-05-04T23:53:24.477Z,72.60
2017-05-04T23:55:51.585Z,72.60
2017-05-04T23:58:19.492Z,72.30
